createdAt,value
2019-05-12T01:03:59.434Z,4.81
2019-05-12T01:06:28.422Z,4.84
2019-05-12T01:09:05.389Z,4.84
2019-05-12T01:11:43.150Z,4.84
2019-05-12T01:14:13.975Z,4.80
2019-05-12T01:16:42.731Z,4.78
2019-05-12T01:19:11.835Z,4.74
2019-05-12T01:21:40.724Z,4.77
2019-05-12T01:24:09.461Z,4.71
2019-05-12T01:26:38.870Z,4.60
2019-05-12T01:29:08.713Z,4.55
2019-05-12T01:31:39.154Z,4.48
2019-05-12T01:34:08.184Z,4.44
2019-05-12T01:36:38.088Z,4.42
2019-05-12T01:39:09.213Z,4.31
2019-05-12T01:41:38.943Z,4.26
2019-05-12T01:44:08.967Z,4.25
2019-05-12T01:46:38.426Z,4.23
2019-05-12T01:49:08.324Z,4.15
2019-05-12T01:51:38.611Z,4.11
2019-05-12T01:54:14.699Z,4.07
2019-05-12T01:56:39.266Z,3.98
2019-05-12T01:59:08.291Z,3.89
2019-05-12T02:01:38.968Z,3.80
2019-05-12T02:04:08.647Z,3.82
2019-05-12T02:06:38.620Z,3.83
2019-05-12T02:09:09.250Z,3.82
2019-05-12T02:11:38.193Z,3.84
2019-05-12T02:14:09.271Z,3.76
2019-05-12T02:16:38.805Z,3.70
2019-05-12T02:19:09.238Z,3.66
2019-05-12T02:21:38.325Z,3.60
2019-05-12T02:24:07.982Z,3.44
2019-05-12T02:26:38.218Z,3.33
2019-05-12T02:29:08.024Z,3.29
2019-05-12T02:31:39.776Z,3.29
2019-05-12T02:34:07.624Z,3.30
2019-05-12T02:36:36.335Z,3.30
2019-05-12T02:39:08.885Z,3.34
2019-05-12T02:41:37.704Z,3.31
2019-05-12T02:44:06.484Z,3.23
2019-05-12T02:46:35.734Z,3.25
2019-05-12T02:49:05.180Z,3.29
2019-05-12T02:51:35.674Z,3.31
2019-05-12T02:54:06.048Z,3.29
2019-05-12T02:56:36.325Z,3.35
2019-05-12T02:59:05.662Z,3.32
2019-05-12T03:01:36.238Z,3.24
2019-05-12T03:04:06.137Z,3.28
2019-05-12T03:06:36.851Z,3.20
2019-05-12T03:09:07.896Z,3.14
2019-05-12T03:11:38.164Z,3.09
2019-05-12T03:14:06.998Z,3.07
2019-05-12T03:16:35.794Z,2.99
2019-05-12T03:19:05.262Z,2.92
2019-05-12T03:21:35.381Z,3.00
2019-05-12T03:24:06.651Z,2.65
2019-05-12T03:26:35.516Z,3.18
2019-05-12T03:29:05.870Z,3.29
2019-05-12T03:31:39.944Z,3.40
2019-05-12T03:34:09.430Z,3.51
2019-05-12T03:36:42.102Z,3.59
2019-05-12T03:39:10.018Z,3.66
2019-05-12T03:41:38.792Z,3.73
2019-05-12T03:44:07.562Z,3.76
2019-05-12T03:46:36.237Z,1.79
2019-05-12T03:49:05.582Z,3.82
2019-05-12T03:51:35.217Z,3.89
2019-05-12T03:54:05.484Z,3.92
2019-05-12T03:56:35.108Z,3.96
2019-05-12T03:59:05.436Z,3.97
2019-05-12T04:01:36.305Z,3.97
2019-05-12T04:04:05.788Z,3.96
2019-05-12T04:06:35.075Z,3.97
2019-05-12T04:09:06.459Z,3.99
2019-05-12T04:11:35.832Z,4.02
2019-05-12T04:14:07.153Z,4.02
2019-05-12T04:16:36.653Z,4.04
2019-05-12T04:19:05.868Z,4.05
2019-05-12T04:21:35.522Z,4.07
2019-05-12T04:24:06.231Z,4.06
2019-05-12T04:26:36.631Z,4.13
2019-05-12T04:29:05.814Z,4.18
2019-05-12T04:31:37.037Z,4.29
2019-05-12T04:34:05.951Z,4.35
2019-05-12T04:36:35.780Z,4.43
2019-05-12T04:39:07.596Z,4.56
2019-05-12T04:41:36.850Z,4.63
2019-05-12T04:44:06.294Z,4.68
2019-05-12T04:46:35.269Z,4.74
2019-05-12T04:49:05.314Z,4.78
2019-05-12T04:51:35.222Z,4.78
2019-05-12T04:54:05.758Z,4.80
2019-05-12T04:56:36.206Z,4.95
2019-05-12T04:59:06.652Z,5.81
2019-05-12T05:01:35.687Z,9.08
2019-05-12T05:04:05.633Z,11.70
2019-05-12T05:06:36.194Z,13.77
2019-05-12T05:09:07.852Z,15.58
2019-05-12T05:11:36.741Z,16.82
2019-05-12T05:14:06.531Z,18.12
2019-05-12T05:16:35.414Z,18.59
2019-05-12T05:19:04.259Z,19.60
2019-05-12T05:21:34.536Z,20.68
2019-05-12T05:24:03.932Z,21.71
2019-05-12T05:26:36.679Z,22.57
2019-05-12T05:29:04.630Z,21.45
2019-05-12T05:31:33.779Z,21.90
2019-05-12T05:34:04.835Z,21.78
2019-05-12T05:36:35.740Z,21.50
2019-05-12T05:39:07.958Z,21.60
2019-05-12T05:41:48.951Z,17.74
2019-05-12T05:44:13.850Z,16.12
2019-05-12T05:46:48.214Z,14.69
2019-05-12T05:49:13.694Z,13.72
2019-05-12T05:51:46.630Z,13.39
2019-05-12T05:54:13.722Z,14.87
2019-05-12T05:56:57.750Z,17.62
2019-05-12T05:59:15.025Z,18.13
2019-05-12T06:01:47.109Z,19.71
2019-05-12T06:04:14.701Z,20.20
2019-05-12T06:06:50.707Z,20.49
2019-05-12T06:09:14.227Z,18.90
2019-05-12T06:11:43.756Z,18.06
2019-05-12T06:14:16.148Z,17.95
2019-05-12T06:16:43.760Z,16.50
2019-05-12T06:19:14.061Z,17.31
2019-05-12T06:21:44.225Z,17.61
2019-05-12T06:24:15.629Z,16.80
2019-05-12T06:26:56.657Z,17.05
2019-05-12T06:29:20.141Z,17.50
2019-05-12T06:31:44.987Z,17.51
2019-05-12T06:34:20.612Z,15.80
2019-05-12T06:36:45.951Z,15.38
2019-05-12T06:39:18.651Z,13.99
2019-05-12T06:41:45.300Z,13.05
2019-05-12T06:44:19.204Z,12.08
2019-05-12T06:46:45.539Z,12.13
2019-05-12T06:49:17.500Z,13.47
2019-05-12T06:51:45.215Z,13.47
2019-05-12T06:54:15.063Z,13.53
2019-05-12T06:56:44.228Z,14.92
2019-05-12T06:59:14.794Z,16.08
2019-05-12T07:01:45.030Z,16.53
2019-05-12T07:04:14.299Z,16.72
2019-05-12T07:06:44.163Z,16.55
2019-05-12T07:09:16.459Z,17.02
2019-05-12T07:11:53.547Z,16.67
2019-05-12T07:14:22.686Z,15.32
2019-05-12T07:17:01.804Z,14.78
2019-05-12T07:19:25.607Z,15.63
2019-05-12T07:21:59.861Z,15.95
2019-05-12T07:24:26.440Z,16.93
2019-05-12T07:27:03.996Z,17.27
2019-05-12T07:29:30.005Z,17.67
2019-05-12T07:31:58.924Z,17.49
2019-05-12T07:34:27.798Z,18.11
2019-05-12T07:36:57.825Z,17.96
2019-05-12T07:39:27.781Z,17.07
2019-05-12T07:41:59.679Z,18.12
2019-05-12T07:44:32.129Z,16.99
2019-05-12T07:47:03.570Z,16.28
2019-05-12T07:49:38.252Z,15.59
2019-05-12T07:52:05.343Z,16.00
2019-05-12T07:54:39.221Z,15.65
2019-05-12T07:57:11.826Z,16.95
2019-05-12T07:59:40.969Z,17.69
2019-05-12T08:02:06.170Z,17.15
2019-05-12T08:04:39.719Z,16.44
2019-05-12T08:07:09.114Z,16.13
2019-05-12T08:09:37.990Z,16.92
2019-05-12T08:12:09.521Z,16.93
2019-05-12T08:14:37.425Z,17.06
2019-05-12T08:17:12.221Z,17.97
2019-05-12T08:19:38.901Z,18.06
2019-05-12T08:22:07.738Z,17.84
2019-05-12T08:24:42.838Z,17.56
2019-05-12T08:27:07.014Z,17.08
2019-05-12T08:29:36.116Z,17.50
2019-05-12T08:32:09.884Z,17.31
2019-05-12T08:34:35.789Z,15.54
2019-05-12T08:37:06.786Z,16.83
2019-05-12T08:39:38.844Z,17.42
2019-05-12T08:42:06.534Z,17.60
2019-05-12T08:44:47.554Z,16.89
2019-05-12T08:47:35.497Z,17.09
2019-05-12T08:50:04.588Z,16.90
2019-05-12T08:52:37.148Z,16.62
2019-05-12T08:55:04.413Z,16.13
2019-05-12T08:57:40.851Z,16.28
2019-05-12T09:00:09.613Z,16.60
2019-05-12T09:02:39.931Z,17.02
2019-05-12T09:05:09.380Z,16.38
2019-05-12T09:07:40.074Z,15.94
2019-05-12T09:10:09.144Z,16.84
2019-05-12T09:12:38.110Z,17.44
2019-05-12T09:15:13.620Z,17.73
2019-05-12T09:20:48.794Z,19.25
2019-05-12T09:23:13.847Z,18.98
2019-05-12T09:25:45.273Z,18.08
2019-05-12T09:28:19.432Z,16.90
2019-05-12T09:30:58.387Z,16.39
2019-05-12T09:33:34.098Z,16.22
2019-05-12T09:36:00.707Z,15.68
2019-05-12T09:38:29.667Z,15.47
2019-05-12T09:41:05.423Z,15.81
2019-05-12T09:43:40.189Z,15.92
2019-05-12T09:46:07.151Z,15.55
2019-05-12T09:48:43.875Z,15.79
2019-05-12T09:51:09.502Z,16.47
2019-05-12T09:53:50.752Z,16.89
2019-05-12T09:56:30.154Z,17.48
2019-05-12T09:59:16.927Z,17.76
2019-05-12T10:01:37.318Z,18.54
2019-05-12T10:04:10.344Z,18.21
2019-05-12T10:06:36.837Z,16.97
2019-05-12T10:09:08.797Z,16.09
2019-05-12T10:11:37.927Z,16.16
2019-05-12T10:14:10.802Z,15.85
2019-05-12T10:16:39.535Z,15.68
2019-05-12T10:19:08.067Z,15.97
2019-05-12T10:21:40.907Z,16.29
2019-05-12T10:24:09.775Z,16.27
2019-05-12T10:26:41.199Z,15.97
2019-05-12T10:29:17.525Z,15.78
2019-05-12T10:31:40.383Z,15.49
2019-05-12T10:34:14.489Z,15.43
2019-05-12T10:36:49.022Z,15.13
2019-05-12T10:39:16.640Z,15.04
2019-05-12T10:41:48.632Z,14.93
2019-05-12T10:44:17.502Z,15.47
2019-05-12T10:46:48.091Z,16.67
2019-05-12T10:49:17.186Z,17.19
2019-05-12T10:51:47.711Z,17.12
2019-05-12T10:54:17.265Z,16.99
2019-05-12T10:56:46.308Z,17.41
2019-05-12T10:59:29.022Z,17.67
2019-05-12T11:01:49.053Z,17.32
2019-05-12T11:04:16.999Z,17.56
2019-05-12T11:06:48.527Z,17.12
2019-05-12T11:09:21.245Z,16.97
2019-05-12T11:11:53.845Z,16.97
2019-05-12T11:14:26.411Z,16.76
2019-05-12T11:16:54.237Z,16.36
2019-05-12T11:19:23.737Z,16.14
2019-05-12T11:22:05.050Z,16.37
2019-05-12T11:24:36.683Z,16.25
2019-05-12T11:27:13.423Z,16.01
2019-05-12T11:29:53.318Z,15.98
2019-05-12T11:32:37.921Z,15.82
2019-05-12T11:35:11.607Z,15.79
2019-05-12T11:37:46.193Z,15.83
2019-05-12T11:40:16.096Z,15.76
2019-05-12T11:42:46.850Z,16.62
2019-05-12T11:45:15.553Z,17.09
2019-05-12T11:47:44.740Z,16.70
2019-05-12T11:50:14.124Z,16.45
2019-05-12T11:52:45.952Z,16.15
2019-05-12T11:55:21.286Z,15.47
2019-05-12T11:57:48.929Z,15.29
2019-05-12T12:00:19.569Z,15.00
2019-05-12T12:02:49.953Z,14.91
2019-05-12T12:05:18.849Z,15.02
2019-05-12T12:07:52.624Z,15.26
2019-05-12T12:10:19.730Z,15.32
2019-05-12T12:12:49.452Z,15.42
2019-05-12T12:15:26.339Z,15.59
2019-05-12T12:17:56.200Z,15.51
2019-05-12T12:20:25.793Z,15.53
2019-05-12T12:22:54.624Z,15.62
2019-05-12T12:25:25.119Z,15.36
2019-05-12T12:27:54.169Z,15.26
2019-05-12T12:30:24.523Z,14.99
2019-05-12T12:32:56.957Z,15.10
2019-05-12T12:35:24.526Z,15.34
2019-05-12T12:37:54.231Z,15.76
2019-05-12T12:40:23.550Z,16.72
2019-05-12T12:42:53.808Z,17.50
2019-05-12T12:45:30.324Z,18.17
2019-05-12T12:47:58.793Z,16.85
2019-05-12T12:50:30.499Z,16.28
2019-05-12T12:52:58.218Z,15.86
2019-05-12T12:55:27.400Z,15.30
2019-05-12T12:57:56.508Z,15.02
2019-05-12T13:00:32.160Z,14.93
2019-05-12T13:02:57.611Z,14.94
2019-05-12T13:05:28.003Z,15.04
2019-05-12T13:07:56.967Z,14.89
2019-05-12T13:10:25.718Z,15.11
2019-05-12T13:12:59.434Z,16.08
2019-05-12T13:15:26.135Z,17.67
2019-05-12T13:17:54.926Z,18.24
2019-05-12T13:20:24.108Z,18.03
2019-05-12T13:22:53.688Z,17.23
2019-05-12T13:25:22.768Z,17.92
2019-05-12T13:27:53.464Z,18.91
2019-05-12T13:30:24.318Z,19.31
2019-05-12T13:32:53.030Z,19.94
2019-05-12T13:35:23.763Z,18.85
2019-05-12T13:37:56.553Z,17.43
2019-05-12T13:40:23.432Z,16.83
2019-05-12T13:42:54.505Z,16.37
2019-05-12T13:45:24.250Z,17.33
2019-05-12T13:47:53.555Z,18.28
2019-05-12T13:50:26.256Z,18.89
2019-05-12T13:52:54.302Z,18.04
2019-05-12T13:55:25.656Z,17.00
2019-05-12T13:57:57.736Z,16.98
2019-05-12T14:00:25.023Z,16.48
2019-05-12T14:03:03.300Z,16.35
2019-05-12T14:05:27.150Z,15.95
2019-05-12T14:07:57.433Z,15.86
2019-05-12T14:10:26.349Z,15.79
2019-05-12T14:12:55.161Z,15.78
2019-05-12T14:15:24.862Z,15.56
2019-05-12T14:17:54.451Z,15.38
2019-05-12T14:20:23.914Z,15.37
2019-05-12T14:22:53.951Z,15.42
2019-05-12T14:25:29.837Z,15.42
2019-05-12T14:27:53.774Z,15.16
2019-05-12T14:30:24.587Z,15.19
2019-05-12T14:32:55.184Z,15.30
2019-05-12T14:35:23.982Z,15.45
2019-05-12T14:37:55.389Z,15.41
2019-05-12T14:40:29.920Z,15.60
2019-05-12T14:42:54.841Z,15.27
2019-05-12T14:45:29.761Z,15.42
2019-05-12T14:47:59.972Z,15.45
2019-05-12T14:50:26.187Z,15.37
2019-05-12T14:52:59.524Z,14.61
2019-05-12T14:55:25.699Z,14.70
2019-05-12T14:57:54.556Z,14.55
2019-05-12T15:00:24.147Z,14.49
2019-05-12T15:02:54.106Z,14.37
2019-05-12T15:05:25.356Z,14.40
2019-05-12T15:07:56.475Z,14.42
2019-05-12T15:10:23.952Z,14.45
2019-05-12T15:12:54.325Z,14.59
2019-05-12T15:15:24.270Z,14.38
2019-05-12T15:18:02.584Z,14.30
2019-05-12T15:20:24.606Z,14.37
2019-05-12T15:22:55.375Z,14.06
2019-05-12T15:25:23.921Z,14.07
2019-05-12T15:27:54.349Z,13.98
2019-05-12T15:30:26.522Z,13.88
2019-05-12T15:32:53.827Z,13.81
2019-05-12T15:35:24.099Z,13.79
2019-05-12T15:37:55.087Z,13.69
2019-05-12T15:40:23.930Z,13.70
2019-05-12T15:42:55.110Z,13.63
2019-05-12T15:45:23.852Z,13.63
2019-05-12T15:47:53.507Z,13.66
2019-05-12T15:50:23.162Z,13.62
2019-05-12T15:52:54.699Z,13.50
2019-05-12T15:55:25.631Z,13.56
2019-05-12T15:57:54.501Z,13.75
2019-05-12T16:00:24.399Z,13.77
2019-05-12T16:02:53.522Z,13.69
2019-05-12T16:05:28.713Z,13.39
2019-05-12T16:07:54.055Z,13.37
2019-05-12T16:10:23.643Z,13.47
2019-05-12T16:12:53.371Z,13.46
2019-05-12T16:15:22.393Z,13.44
2019-05-12T16:17:51.262Z,13.40
2019-05-12T16:20:20.113Z,13.20
2019-05-12T16:22:49.013Z,13.29
2019-05-12T16:25:20.806Z,13.14
2019-05-12T16:27:48.439Z,13.21
2019-05-12T16:30:20.305Z,13.34
2019-05-12T16:32:48.818Z,13.33
2019-05-12T16:35:20.132Z,13.23
2019-05-12T16:37:48.706Z,13.00
2019-05-12T16:40:17.782Z,13.15
2019-05-12T16:42:51.167Z,13.28
2019-05-12T16:45:20.080Z,13.45
2019-05-12T16:47:49.331Z,13.45
2019-05-12T16:50:27.696Z,13.53
2019-05-12T16:52:54.485Z,13.48
2019-05-12T16:55:30.769Z,13.29
2019-05-12T16:57:59.811Z,13.16
2019-05-12T17:00:30.965Z,13.07
2019-05-12T17:02:59.323Z,12.85
2019-05-12T17:05:28.248Z,12.74
2019-05-12T17:07:57.519Z,12.91
2019-05-12T17:10:26.512Z,13.04
2019-05-12T17:12:55.738Z,13.07
2019-05-12T17:15:24.792Z,13.11
2019-05-12T17:17:59.258Z,13.01
2019-05-12T17:20:24.133Z,12.82
2019-05-12T17:22:55.140Z,12.78
2019-05-12T17:25:24.174Z,12.67
2019-05-12T17:27:53.278Z,12.65
2019-05-12T17:30:23.855Z,12.65
2019-05-12T17:33:00.886Z,12.77
2019-05-12T17:35:31.724Z,12.66
2019-05-12T17:37:59.499Z,12.64
2019-05-12T17:40:28.412Z,12.65
2019-05-12T17:43:06.941Z,12.64
2019-05-12T17:45:28.088Z,12.50
2019-05-12T17:48:02.797Z,12.45
2019-05-12T17:50:28.141Z,11.10
2019-05-12T17:53:00.245Z,12.32
2019-05-12T17:55:29.195Z,12.26
2019-05-12T17:57:58.258Z,12.28
2019-05-12T18:00:27.797Z,12.16
2019-05-12T18:03:14.539Z,12.12
2019-05-12T18:05:27.274Z,12.10
2019-05-12T18:07:57.396Z,12.09
2019-05-12T18:10:43.637Z,11.94
2019-05-12T18:13:23.002Z,11.88
2019-05-12T18:15:45.168Z,11.82
2019-05-12T18:18:17.292Z,11.76
2019-05-12T18:20:44.689Z,11.72
2019-05-12T18:23:13.657Z,11.63
2019-05-12T18:25:44.292Z,11.58
2019-05-12T18:28:14.042Z,11.51
2019-05-12T18:30:43.629Z,11.45
2019-05-12T18:33:13.784Z,11.33
2019-05-12T18:35:43.970Z,11.27
2019-05-12T18:38:18.290Z,11.17
2019-05-12T18:40:43.629Z,11.13
2019-05-12T18:43:14.198Z,11.07
2019-05-12T18:45:43.058Z,10.97
2019-05-12T18:48:20.289Z,10.88
2019-05-12T18:50:44.198Z,10.87
2019-05-12T18:53:14.834Z,10.75
2019-05-12T18:55:44.360Z,10.68
2019-05-12T18:58:14.792Z,10.66
2019-05-12T19:00:44.119Z,10.55
2019-05-12T19:03:13.990Z,10.51
2019-05-12T19:05:43.841Z,10.44
2019-05-12T19:08:13.999Z,10.35
2019-05-12T19:10:47.313Z,10.33
2019-05-12T19:13:13.807Z,10.26
2019-05-12T19:15:44.120Z,10.15
2019-05-12T19:18:18.039Z,10.11
2019-05-12T19:20:47.560Z,10.04
2019-05-12T19:23:15.074Z,9.92
2019-05-12T19:25:43.858Z,9.78
2019-05-12T19:28:13.534Z,9.60
2019-05-12T19:30:43.864Z,9.53
2019-05-12T19:33:13.572Z,9.38
2019-05-12T19:35:43.492Z,9.25
2019-05-12T19:38:15.228Z,9.05
2019-05-12T19:40:47.334Z,8.95
2019-05-12T19:43:14.102Z,8.84
2019-05-12T19:45:44.635Z,8.86
2019-05-12T19:48:23.588Z,8.85
2019-05-12T19:50:52.094Z,8.83
2019-05-12T19:53:14.596Z,8.76
2019-05-12T19:55:44.381Z,8.50
2019-05-12T19:58:13.197Z,8.54
2019-05-12T20:00:43.853Z,8.39
2019-05-12T20:03:13.918Z,8.29
2019-05-12T20:05:43.473Z,8.22
2019-05-12T20:08:13.775Z,8.19
2019-05-12T20:10:49.248Z,8.19
2019-05-12T20:13:13.781Z,8.19
2019-05-12T20:15:43.778Z,8.08
2019-05-12T20:18:14.691Z,7.94
2019-05-12T20:20:46.697Z,7.83
2019-05-12T20:23:24.591Z,7.77
2019-05-12T20:25:54.041Z,7.66
2019-05-12T20:28:24.195Z,7.62
2019-05-12T20:31:00.897Z,7.53
2019-05-12T20:33:24.262Z,7.50
2019-05-12T20:35:55.282Z,7.45
2019-05-12T20:38:27.231Z,7.37
2019-05-12T20:40:54.563Z,7.29
2019-05-12T20:43:32.050Z,7.25
2019-05-12T20:45:54.170Z,7.16
2019-05-12T20:48:29.214Z,7.13
2019-05-12T20:50:54.693Z,7.10
2019-05-12T20:53:31.605Z,7.14
2019-05-12T20:55:54.711Z,7.04
2019-05-12T20:58:28.603Z,6.98
2019-05-12T21:00:54.596Z,6.98
2019-05-12T21:03:24.304Z,6.97
2019-05-12T21:05:58.274Z,6.91
2019-05-12T21:08:24.389Z,6.93
2019-05-12T21:10:54.151Z,6.88
2019-05-12T21:13:30.250Z,6.77
2019-05-12T21:15:58.363Z,6.74
2019-05-12T21:18:26.756Z,6.69
2019-05-12T21:20:55.590Z,6.65
2019-05-12T21:23:24.447Z,6.59
2019-05-12T21:25:58.127Z,6.56
2019-05-12T21:28:25.761Z,6.51
2019-05-12T21:30:55.807Z,6.43
2019-05-12T21:33:24.837Z,6.35
2019-05-12T21:35:54.645Z,6.29
2019-05-12T21:38:27.444Z,6.19
2019-05-12T21:40:54.174Z,6.10
2019-05-12T21:43:23.090Z,6.03
2019-05-12T21:45:53.713Z,5.97
2019-05-12T21:48:24.310Z,5.55
2019-05-12T21:50:55.642Z,5.82
2019-05-12T21:53:24.049Z,5.70
2019-05-12T21:55:57.713Z,5.63
2019-05-12T21:58:23.351Z,5.51
2019-05-12T22:00:59.586Z,5.46
2019-05-12T22:03:27.009Z,5.43
2019-05-12T22:05:55.910Z,5.44
2019-05-12T22:08:26.245Z,5.37
2019-05-12T22:10:55.338Z,5.38
2019-05-12T22:13:24.059Z,5.40
2019-05-12T22:15:57.112Z,5.35
2019-05-12T22:18:23.858Z,5.37
2019-05-12T22:21:01.016Z,5.39
2019-05-12T22:23:24.740Z,5.39
2019-05-12T22:25:55.750Z,5.36
2019-05-12T22:28:24.172Z,5.40
2019-05-12T22:30:54.168Z,5.36
2019-05-12T22:33:24.212Z,5.38
2019-05-12T22:36:02.932Z,5.34
2019-05-12T22:38:24.893Z,5.34
2019-05-12T22:40:56.078Z,5.30
2019-05-12T22:43:24.427Z,5.25
2019-05-12T22:45:54.797Z,5.20
2019-05-12T22:48:23.766Z,5.16
2019-05-12T22:50:54.826Z,5.09
2019-05-12T22:53:28.223Z,5.05
2019-05-12T22:55:53.820Z,5.04
2019-05-12T22:58:25.382Z,5.03
2019-05-12T23:01:00.715Z,5.04
2019-05-12T23:03:23.699Z,4.99
2019-05-12T23:06:00.117Z,4.98
2019-05-12T23:08:24.704Z,4.93
2019-05-12T23:10:56.065Z,4.86
2019-05-12T23:13:24.192Z,4.79
2019-05-12T23:15:52.979Z,4.77
2019-05-12T23:18:27.073Z,4.81
2019-05-12T23:20:54.107Z,4.82
2019-05-12T23:23:24.366Z,4.79
2019-05-12T23:26:00.109Z,4.77
2019-05-12T23:28:23.732Z,4.76
2019-05-12T23:30:53.494Z,4.74
2019-05-12T23:33:31.243Z,4.73
2019-05-12T23:35:53.617Z,4.70
2019-05-12T23:38:24.631Z,4.65
2019-05-12T23:40:53.771Z,4.61
2019-05-12T23:43:23.785Z,4.57
2019-05-12T23:45:53.641Z,4.52
2019-05-12T23:48:22.517Z,4.46
2019-05-12T23:50:51.581Z,4.40
2019-05-12T23:53:20.406Z,4.34
2019-05-12T23:55:50.414Z,4.31
2019-05-12T23:58:19.327Z,4.26
